Time;durP1;ratioP1;P1;durP2;ratioP2;P2;SDS_P1;SDS_P2;PMS_P1;PMS_P2;Temp;Humidity;BMP_temperature;BMP_pressure;BME280_temperature;BME280_humidity;BME280_pressure;Samples;Min_cycle;Max_cycle;Signal;HPM_P1;HPM_P2
2022/10/08 00:01:36;;;;;;;21.80;18.70;;;;;;;11.83;100.00;96737.09;5029239;28;105850;-60
2022/10/08 00:04:03;;;;;;;20.97;18.33;;;;;;;11.75;100.00;96741.00;5030027;28;101890;-60
2022/10/08 00:06:32;;;;;;;22.00;18.67;;;;;;;11.72;100.00;96732.69;5030006;28;105669;-60
2022/10/08 00:09:02;;;;;;;20.00;17.90;;;;;;;11.80;100.00;96735.72;5029470;28;105692;-60
2022/10/08 00:11:31;;;;;;;28.37;19.23;;;;;;;11.77;100.00;96743.41;5029917;28;102022;-60
2022/10/08 00:14:01;;;;;;;22.10;19.10;;;;;;;11.74;100.00;96738.56;5032796;28;103812;-60
2022/10/08 00:16:31;;;;;;;23.20;19.40;;;;;;;11.79;100.00;96744.78;5063961;27;101961;-60
2022/10/08 00:19:00;;;;;;;26.40;21.33;;;;;;;11.86;100.00;96737.38;5029910;28;105419;-60
2022/10/08 00:21:30;;;;;;;23.07;18.93;;;;;;;11.82;100.00;96735.47;5029306;28;105781;-60
2022/10/08 00:23:58;;;;;;;21.50;19.13;;;;;;;11.74;100.00;96735.91;5029772;28;101803;-60
2022/10/08 00:26:26;;;;;;;25.10;19.90;;;;;;;11.81;100.00;96734.66;5029485;28;103971;-61
2022/10/08 00:28:57;;;;;;;26.30;20.23;;;;;;;11.85;100.00;96734.97;5029274;28;105739;-60
2022/10/08 00:31:27;;;;;;;22.03;19.23;;;;;;;11.79;100.00;96736.78;5029587;28;101882;-60
2022/10/08 00:33:57;;;;;;;20.10;17.90;;;;;;;11.83;100.00;96737.09;5031394;27;102340;-61
2022/10/08 00:36:26;;;;;;;19.37;17.27;;;;;;;11.87;100.00;96731.00;5033628;28;102794;-60
2022/10/08 00:38:56;;;;;;;21.57;19.07;;;;;;;11.89;100.00;96722.75;5029561;28;105010;-60
2022/10/08 00:41:27;;;;;;;21.20;18.40;;;;;;;11.93;100.00;96724.66;5030239;27;102789;-61
2022/10/08 00:43:56;;;;;;;22.87;18.80;;;;;;;11.88;100.00;96727.28;5029566;28;101786;-60
2022/10/08 00:46:28;;;;;;;23.83;20.10;;;;;;;11.91;100.00;96721.44;5029260;28;104814;-61
2022/10/08 00:48:59;;;;;;;21.40;19.00;;;;;;;11.94;100.00;96720.94;5028866;28;105759;-60
2022/10/08 00:51:26;;;;;;;23.93;20.67;;;;;;;11.97;100.00;96716.97;5030369;28;102537;-61
2022/10/08 00:53:54;;;;;;;27.03;21.47;;;;;;;11.99;100.00;96714.88;5030914;28;102988;-61
2022/10/08 00:56:23;;;;;;;42.17;21.40;;;;;;;11.97;100.00;96717.78;5033676;27;103056;-60
2022/10/08 00:58:51;;;;;;;32.87;22.63;;;;;;;11.95;100.00;96714.53;5030652;27;102372;-60
2022/10/08 01:01:18;;;;;;;24.57;20.67;;;;;;;11.87;100.00;96714.19;5011990;28;105074;-60
2022/10/08 01:03:47;;;;;;;22.83;20.43;;;;;;;11.82;100.00;96714.94;5030768;28;101977;-61
2022/10/08 01:06:26;;;;;;;23.83;21.23;;;;;;;11.87;100.00;96715.00;5029432;28;102529;-60
2022/10/08 01:08:59;;;;;;;44.53;22.03;;;;;;;11.76;100.00;96709.81;5029957;27;104015;-60
2022/10/08 01:11:49;;;;;;;25.43;21.13;;;;;;;11.77;100.00;96704.22;5030553;27;102009;-61
2022/10/08 01:14:33;;;;;;;57.87;22.00;;;;;;;11.76;100.00;96710.63;5027870;27;103019;-61
2022/10/08 01:17:07;;;;;;;68.60;23.90;;;;;;;11.77;100.00;96708.78;5028639;28;102680;-60
2022/10/08 01:20:03;;;;;;;40.83;22.13;;;;;;;11.69;100.00;96717.19;5033836;27;101686;-61
2022/10/08 01:22:41;;;;;;;22.17;19.87;;;;;;;11.64;100.00;96709.13;5029996;28;102458;-60
2022/10/08 01:25:33;;;;;;;44.40;21.90;;;;;;;11.63;100.00;96702.19;5030392;28;101684;-60
2022/10/08 01:28:08;;;;;;;29.33;20.43;;;;;;;11.62;100.00;96704.06;5029654;27;103864;-61
2022/10/08 01:30:38;;;;;;;22.03;19.57;;;;;;;11.59;100.00;96703.75;5029698;27;104623;-60
2022/10/08 01:33:11;;;;;;;30.70;20.57;;;;;;;11.62;100.00;96716.56;5030200;27;101782;-60
2022/10/08 01:35:44;;;;;;;23.70;20.77;;;;;;;11.59;100.00;96703.75;5030215;28;101666;-60
2022/10/08 01:38:16;;;;;;;45.87;20.90;;;;;;;11.52;100.00;96708.44;5029813;27;103215;-60
2022/10/08 01:40:46;;;;;;;23.43;20.60;;;;;;;11.52;100.00;96705.78;5030255;27;101740;-60
2022/10/08 01:43:18;;;;;;;23.07;20.70;;;;;;;11.58;100.00;96704.78;5032618;28;103534;-61
2022/10/08 01:45:50;;;;;;;21.57;19.30;;;;;;;11.56;100.00;96698.91;5030004;28;101933;-60
2022/10/08 01:48:23;;;;;;;28.40;21.40;;;;;;;11.58;100.00;96705.59;5030011;28;102796;-60
2022/10/08 01:50:55;;;;;;;104.33;22.00;;;;;;;11.48;100.00;96704.66;5029131;28;103985;-61
2022/10/08 01:53:27;;;;;;;39.57;21.63;;;;;;;11.52;100.00;96692.44;5029990;28;101804;-60
2022/10/08 01:55:56;;;;;;;23.10;20.70;;;;;;;11.50;100.00;96691.91;5028998;28;101805;-60
2022/10/08 01:58:33;;;;;;;22.97;20.57;;;;;;;11.53;100.00;96691.41;5027713;28;106113;-60
2022/10/08 02:01:05;;;;;;;24.57;22.00;;;;;;;11.57;100.00;96688.00;5029824;28;101668;-60
2022/10/08 02:03:32;;;;;;;25.63;21.00;;;;;;;11.58;100.00;96691.47;5028231;28;105569;-60
2022/10/08 02:06:02;;;;;;;24.73;22.20;;;;;;;11.47;100.00;96693.22;5032356;28;103189;-60
2022/10/08 02:08:29;;;;;;;22.77;20.37;;;;;;;11.52;100.00;96684.47;5029900;28;102909;-60
2022/10/08 02:10:56;;;;;;;73.73;23.70;;;;;;;11.47;100.00;96687.88;5028910;28;102668;-60
2022/10/08 02:13:25;;;;;;;24.57;21.83;;;;;;;11.48;100.00;96696.66;5029364;27;102118;-60
2022/10/08 02:16:00;;;;;;;27.77;22.20;;;;;;;11.52;100.00;96693.28;5027833;28;105645;-60
2022/10/08 02:18:35;;;;;;;25.20;22.60;;;;;;;11.52;100.00;96681.81;5029134;28;103189;-60
2022/10/08 02:21:09;;;;;;;25.30;22.60;;;;;;;11.56;100.00;96685.59;5029222;28;102119;-60
2022/10/08 02:23:40;;;;;;;28.47;22.73;;;;;;;11.49;100.00;96690.28;5027957;28;103592;-60
2022/10/08 02:26:11;;;;;;;24.93;22.17;;;;;;;11.37;100.00;96678.94;5028812;28;103155;-60
2022/10/08 02:28:45;;;;;;;36.60;23.20;;;;;;;11.36;100.00;96686.16;5032980;27;101705;-60
2022/10/08 02:31:19;;;;;;;27.53;23.70;;;;;;;11.35;100.00;96681.84;5028778;28;102872;-60
2022/10/08 02:33:52;;;;;;;26.30;23.27;;;;;;;11.44;100.00;96676.94;5027509;28;102231;-60
2022/10/08 02:36:26;;;;;;;27.13;23.23;;;;;;;11.41;100.00;96683.56;5029305;28;102579;-60
2022/10/08 02:38:56;;;;;;;54.47;24.17;;;;;;;11.45;100.00;96683.84;5027362;28;106393;-60
2022/10/08 02:41:28;;;;;;;37.93;23.57;;;;;;;11.45;100.00;96689.19;5029327;27;101875;-60
2022/10/08 02:44:00;;;;;;;34.27;24.43;;;;;;;11.44;100.00;96690.25;5029159;27;102344;-60
2022/10/08 02:46:30;;;;;;;36.30;22.40;;;;;;;11.38;100.00;96684.03;5027081;28;103986;-60
2022/10/08 02:49:03;;;;;;;49.77;24.00;;;;;;;11.38;100.00;96688.53;5027772;28;102034;-60
2022/10/08 02:51:32;;;;;;;24.97;21.90;;;;;;;11.40;100.00;96686.47;5030265;28;103812;-60
2022/10/08 02:54:01;;;;;;;24.03;21.50;;;;;;;11.40;100.00;96681.91;5028665;27;101950;-60
2022/10/08 02:56:34;;;;;;;25.53;22.83;;;;;;;11.45;100.00;96681.97;5028852;28;102443;-60
2022/10/08 02:59:04;;;;;;;28.77;22.63;;;;;;;11.47;100.00;96693.22;5028546;27;102598;-60
2022/10/08 03:01:37;;;;;;;27.60;23.33;;;;;;;11.55;100.00;96687.44;5027432;28;102142;-60
2022/10/08 03:04:10;;;;;;;24.53;21.70;;;;;;;11.58;100.00;96683.47;5028708;28;102400;-60
2022/10/08 03:06:37;;;;;;;26.13;21.33;;;;;;;11.46;100.00;96696.13;5026930;28;106413;-60
2022/10/08 03:09:06;;;;;;;25.20;21.80;;;;;;;11.50;100.00;96687.38;5028763;28;101840;-60
2022/10/08 03:11:35;;;;;;;25.70;22.67;;;;;;;11.52;100.00;96689.78;5031621;28;102270;-60
2022/10/08 03:14:08;;;;;;;24.97;21.60;;;;;;;11.50;100.00;96686.59;5028597;28;101818;-60
2022/10/08 03:16:38;;;;;;;23.93;21.30;;;;;;;11.59;100.00;96687.75;5028494;27;102467;-60
2022/10/08 03:19:07;;;;;;;22.87;20.40;;;;;;;11.61;100.00;96683.00;5028333;28;102629;-60
2022/10/08 03:21:36;;;;;;;22.80;20.30;;;;;;;11.65;100.00;96689.44;5028620;28;102201;-60
2022/10/08 03:24:02;;;;;;;21.97;19.17;;;;;;;11.54;100.00;96695.66;5028786;27;102228;-60
2022/10/08 03:26:29;;;;;;;26.43;20.77;;;;;;;11.61;100.00;96689.13;5026308;28;105349;-60
2022/10/08 03:28:56;;;;;;;21.83;19.50;;;;;;;11.57;100.00;96696.00;5030570;27;101705;-60
2022/10/08 03:31:25;;;;;;;21.73;18.63;;;;;;;11.62;100.00;96692.59;5031758;28;103940;-60
2022/10/08 03:33:53;;;;;;;21.47;19.03;;;;;;;11.52;100.00;96698.59;5033537;28;105930;-60
2022/10/08 03:36:22;;;;;;;21.23;17.83;;;;;;;11.57;100.00;96695.19;5030601;28;105671;-60
2022/10/08 03:38:50;;;;;;;22.00;19.30;;;;;;;11.53;100.00;96686.88;5029897;28;106397;-60
2022/10/08 03:41:18;;;;;;;21.23;18.13;;;;;;;11.56;100.00;96698.91;5031720;28;101862;-60
2022/10/08 03:43:45;;;;;;;20.63;18.03;;;;;;;11.55;100.00;96697.28;5031746;28;103210;-60
2022/10/08 03:46:14;;;;;;;20.23;17.90;;;;;;;11.55;100.00;96692.75;5029793;28;105892;-60
2022/10/08 03:48:43;;;;;;;19.13;17.13;;;;;;;11.54;100.00;96706.31;5030298;28;101796;-60
2022/10/08 03:51:13;;;;;;;19.20;16.40;;;;;;;11.50;100.00;96699.91;5031509;28;102363;-60
2022/10/08 03:53:41;;;;;;;17.27;15.57;;;;;;;11.46;100.00;96701.44;5029347;28;103974;-60
2022/10/08 03:56:11;;;;;;;18.03;16.23;;;;;;;11.49;100.00;96704.41;5035054;28;101890;-60
2022/10/08 03:58:39;;;;;;;17.17;15.47;;;;;;;11.42;100.00;96700.31;5031310;28;102747;-60
2022/10/08 04:01:08;;;;;;;16.37;14.67;;;;;;;11.45;100.00;96705.16;5031519;28;101819;-60
2022/10/08 04:03:35;;;;;;;19.00;15.07;;;;;;;11.48;100.00;96709.97;5030007;28;105323;-60
2022/10/08 04:06:04;;;;;;;16.53;14.83;;;;;;;11.47;100.00;96706.53;5030957;28;102562;-60
2022/10/08 04:08:33;;;;;;;17.33;15.53;;;;;;;11.49;100.00;96703.59;5031580;28;101645;-60
2022/10/08 04:11:03;;;;;;;16.83;15.23;;;;;;;11.45;100.00;96694.50;5031442;28;102891;-60
2022/10/08 04:13:30;;;;;;;17.17;15.47;;;;;;;11.47;100.00;96705.72;5029382;28;105987;-60
2022/10/08 04:16:02;;;;;;;16.60;14.87;;;;;;;11.46;100.00;96704.09;5031028;28;101862;-60
2022/10/08 04:18:30;;;;;;;15.80;14.23;;;;;;;11.44;100.00;96701.69;5032801;28;103501;-60
2022/10/08 04:20:58;;;;;;;14.53;13.13;;;;;;;11.40;100.00;96697.09;5031354;28;101845;-60
2022/10/08 04:23:28;;;;;;;14.17;12.87;;;;;;;11.44;100.00;96700.91;5031390;28;102826;-60
2022/10/08 04:25:55;;;;;;;15.23;13.83;;;;;;;11.42;100.00;96695.81;5030172;27;102711;-60
2022/10/08 04:28:22;;;;;;;15.10;13.60;;;;;;;11.41;100.00;96698.72;5029953;28;102132;-60
2022/10/08 04:30:58;;;;;;;16.57;15.07;;;;;;;11.40;100.00;96691.78;5031068;28;102371;-60
2022/10/08 04:33:25;;;;;;;16.20;14.60;;;;;;;11.38;100.00;96697.34;5030104;28;102600;-60
2022/10/08 04:35:53;;;;;;;15.10;13.53;;;;;;;11.36;100.00;96691.47;5031106;28;101979;-60
2022/10/08 04:38:20;;;;;;;15.47;13.97;;;;;;;11.29;100.00;96684.72;5029809;28;103825;-60
2022/10/08 04:40:48;;;;;;;15.77;12.97;;;;;;;11.24;100.00;96690.75;5031101;27;103953;-60
2022/10/08 04:43:15;;;;;;;15.27;13.77;;;;;;;11.15;100.00;96688.78;5030930;28;102461;-60
2022/10/08 04:45:44;;;;;;;15.03;13.63;;;;;;;11.12;100.00;96684.75;5028887;28;102741;-60
2022/10/08 04:48:11;;;;;;;16.40;14.80;;;;;;;10.92;100.00;96687.16;5029351;28;101996;-60
2022/10/08 04:50:38;;;;;;;15.73;14.23;;;;;;;11.03;100.00;96693.41;5029364;28;105152;-60
2022/10/08 04:53:05;;;;;;;15.07;13.60;;;;;;;11.06;100.00;96691.06;5028636;28;105382;-60
2022/10/08 04:55:33;;;;;;;16.10;14.43;;;;;;;11.07;100.00;96699.88;5029087;28;102098;-60
2022/10/08 04:58:02;;;;;;;16.07;14.50;;;;;;;11.07;100.00;96690.00;5029206;28;105353;-60
2022/10/08 05:00:29;;;;;;;16.13;14.50;;;;;;;11.08;100.00;96683.66;5028813;28;106006;-60
2022/10/08 05:02:56;;;;;;;15.17;13.77;;;;;;;11.06;100.00;96685.75;5032428;28;101789;-60
2022/10/08 05:05:24;;;;;;;14.43;13.13;;;;;;;11.05;100.00;96689.47;5028665;28;105765;-60
2022/10/08 05:07:53;;;;;;;14.93;13.47;;;;;;;11.10;100.00;96696.69;5029202;28;102050;-60
2022/10/08 05:10:19;;;;;;;13.07;11.93;;;;;;;10.92;100.00;96694.31;5028975;28;106112;-60
2022/10/08 05:12:47;;;;;;;14.50;13.20;;;;;;;10.99;100.00;96692.28;5028329;28;105358;-60
2022/10/08 05:15:16;;;;;;;14.60;13.23;;;;;;;11.03;100.00;96693.41;5028834;28;101916;-60
2022/10/08 05:17:43;;;;;;;14.60;13.30;;;;;;;10.99;100.00;96685.13;5028718;28;105060;-60
2022/10/08 05:20:10;;;;;;;13.43;12.23;;;;;;;11.07;100.00;96686.56;5028071;28;105833;-60
2022/10/08 05:22:37;;;;;;;15.00;13.60;;;;;;;11.08;100.00;96682.84;5032310;28;101986;-60
2022/10/08 05:25:05;;;;;;;14.37;13.07;;;;;;;11.17;100.00;96681.38;5028098;28;105075;-60
2022/10/08 05:27:32;;;;;;;14.23;12.83;;;;;;;11.20;100.00;96684.34;5027953;28;102116;-60
2022/10/08 05:30:01;;;;;;;15.57;14.17;;;;;;;11.00;100.00;96696.56;5028534;28;104841;-60
2022/10/08 05:32:30;;;;;;;16.00;14.37;;;;;;;10.94;100.00;96697.53;5027294;28;105960;-60
2022/10/08 05:34:57;;;;;;;15.63;14.13;;;;;;;11.05;100.00;96691.31;5028500;28;101888;-60
2022/10/08 05:37:24;;;;;;;15.70;14.20;;;;;;;11.14;100.00;96695.16;5028589;28;105121;-60
2022/10/08 05:39:52;;;;;;;15.40;13.93;;;;;;;11.20;100.00;96702.97;5029479;28;102953;-60
2022/10/08 05:42:18;;;;;;;15.73;14.23;;;;;;;11.29;100.00;96712.13;5028498;28;101907;-60
2022/10/08 05:44:45;;;;;;;16.80;15.20;;;;;;;11.09;100.00;96711.06;5031348;28;105166;-60
2022/10/08 05:47:12;;;;;;;15.10;13.70;;;;;;;11.19;100.00;96712.03;5029748;28;101676;-60
2022/10/08 05:49:40;;;;;;;14.17;12.87;;;;;;;11.15;100.00;96710.91;5028536;28;105317;-60
2022/10/08 05:52:08;;;;;;;13.87;12.67;;;;;;;11.22;100.00;96710.69;5060777;27;106429;-60
2022/10/08 05:54:35;;;;;;;14.17;12.87;;;;;;;11.30;100.00;96708.44;5028393;28;102101;-60
2022/10/08 05:57:02;;;;;;;13.37;12.07;;;;;;;11.39;100.00;96716.81;5028124;28;105406;-59
2022/10/08 05:59:29;;;;;;;17.17;15.47;;;;;;;11.37;100.00;96719.72;5027593;28;105297;-59
2022/10/08 06:01:56;;;;;;;16.87;15.23;;;;;;;11.36;100.00;96720.75;5029645;28;101879;-60
2022/10/08 06:04:23;;;;;;;16.17;14.67;;;;;;;11.47;100.00;96727.81;5028201;28;103940;-60
2022/10/08 06:06:52;;;;;;;15.40;13.97;;;;;;;11.50;100.00;96724.66;5030926;28;105673;-60
2022/10/08 06:09:20;;;;;;;16.83;15.23;;;;;;;11.60;100.00;96729.31;5028191;28;105037;-60
2022/10/08 06:11:49;;;;;;;16.80;15.20;;;;;;;11.59;100.00;96738.38;5026965;28;105590;-60
2022/10/08 06:14:18;;;;;;;15.83;14.43;;;;;;;11.66;100.00;96731.03;5028027;28;102257;-60
2022/10/08 06:16:44;;;;;;;14.87;13.57;;;;;;;11.67;100.00;96735.28;5029564;28;102843;-59
2022/10/08 06:19:11;;;;;;;14.80;13.40;;;;;;;11.72;100.00;96733.47;5027345;28;105132;-60
2022/10/08 06:21:38;;;;;;;14.60;13.20;;;;;;;11.72;100.00;96732.69;5027799;28;102023;-60
2022/10/08 06:24:10;;;;;;;14.60;13.30;;;;;;;11.72;100.00;96736.13;5027916;28;104839;-60
2022/10/08 06:26:39;;;;;;;13.50;12.13;;;;;;;11.81;100.00;96737.31;5027082;28;105061;-60
2022/10/08 06:29:07;;;;;;;13.97;12.63;;;;;;;11.82;100.00;96738.13;5031310;28;101810;-60
2022/10/08 06:31:36;;;;;;;13.53;12.30;;;;;;;11.90;100.00;96746.50;5027377;28;105699;-60
2022/10/08 06:34:03;;;;;;;12.97;11.87;;;;;;;11.92;100.00;96748.88;5027880;28;101864;-60
2022/10/08 06:36:31;;;;;;;13.70;12.47;;;;;;;11.95;100.00;96737.75;5027625;28;104791;-60
2022/10/08 06:39:00;;;;;;;13.13;11.93;;;;;;;12.03;100.00;96750.59;5027166;28;105277;-60
2022/10/08 06:41:32;;;;;;;12.77;11.57;;;;;;;12.07;100.00;96757.06;5027227;28;102252;-59
2022/10/08 06:43:59;;;;;;;13.90;12.60;;;;;;;12.08;100.00;96753.34;5027807;28;103507;-60
2022/10/08 06:46:26;;;;;;;13.97;12.77;;;;;;;12.24;100.00;96765.78;5026804;28;105378;-60
2022/10/08 06:48:53;;;;;;;12.70;11.60;;;;;;;12.35;100.00;96757.63;5027698;28;101851;-60
2022/10/08 06:51:20;;;;;;;13.43;12.23;;;;;;;12.47;100.00;96762.78;5029840;28;105579;-59
2022/10/08 06:53:53;;;;;;;12.27;11.17;;;;;;;12.49;100.00;96758.81;5027307;28;102040;-60
2022/10/08 06:56:21;;;;;;;12.97;11.77;;;;;;;12.61;100.00;96756.81;5028307;28;102545;-60
2022/10/08 06:58:50;;;;;;;12.20;11.00;;;;;;;12.71;100.00;96764.09;5026409;28;105853;-59
2022/10/08 07:01:19;;;;;;;11.77;10.77;;;;;;;12.69;100.00;96763.53;5026743;28;102048;-60
2022/10/08 07:03:49;;;;;;;11.90;10.80;;;;;;;12.84;100.00;96758.31;5028328;27;104939;-60
2022/10/08 07:06:17;;;;;;;12.43;11.33;;;;;;;12.85;100.00;96763.41;5030028;28;104252;-60
2022/10/08 07:08:44;;;;;;;12.80;11.63;;;;;;;12.81;100.00;96774.84;5030373;28;101894;-60
2022/10/08 07:11:14;;;;;;;11.07;10.03;;;;;;;12.84;100.00;96771.66;5030034;28;103781;-60
2022/10/08 07:13:41;;;;;;;12.33;11.10;;;;;;;12.88;100.00;96775.44;5034904;27;102171;-60
2022/10/08 07:16:12;;;;;;;12.73;11.33;;;;;;;12.94;100.00;96774.41;5064883;27;105924;-60
2022/10/08 07:18:41;;;;;;;12.00;10.90;;;;;;;13.00;100.00;96784.09;5030043;28;104469;-61
2022/10/08 07:21:11;;;;;;;11.93;10.83;;;;;;;12.94;100.00;96787.75;5031925;27;101979;-61
2022/10/08 07:23:37;;;;;;;11.50;10.50;;;;;;;13.11;100.00;96789.28;5030768;28;104033;-61
2022/10/08 07:26:08;;;;;;;11.97;10.87;;;;;;;13.16;100.00;96789.31;5030104;28;104986;-61
2022/10/08 07:28:38;;;;;;;10.93;9.93;;;;;;;13.20;100.00;96793.06;5032276;28;101716;-61
2022/10/08 07:31:05;;;;;;;11.60;10.60;;;;;;;13.25;100.00;96786.97;5032413;28;102985;-61
2022/10/08 07:33:34;;;;;;;11.23;10.13;;;;;;;13.27;100.00;96784.81;5034883;28;102480;-61
2022/10/08 07:36:09;;;;;;;11.43;10.43;;;;;;;13.37;100.00;96792.91;5030939;27;102722;-61
2022/10/08 07:38:37;;;;;;;10.30;9.30;;;;;;;13.36;100.00;96783.28;5029830;27;103106;-61
2022/10/08 07:41:04;;;;;;;9.33;8.40;;;;;;;13.42;100.00;96784.94;5030905;28;102201;-61
2022/10/08 07:43:30;;;;;;;10.03;8.23;;;;;;;13.54;100.00;96780.19;5031460;28;105521;-61
2022/10/08 07:45:57;;;;;;;8.50;7.80;;;;;;;13.50;100.00;96792.44;5030340;28;105432;-61
2022/10/08 07:48:25;;;;;;;8.07;7.37;;;;;;;13.51;100.00;96783.38;5030984;28;101865;-61
2022/10/08 07:50:53;;;;;;;7.40;6.80;;;;;;;13.36;100.00;96799.31;5030620;28;105360;-61
2022/10/08 07:53:20;;;;;;;7.67;6.97;;;;;;;13.57;100.00;96787.69;5030073;28;105391;-61
2022/10/08 07:55:47;;;;;;;7.20;6.60;;;;;;;13.53;100.00;96794.59;5034122;28;102021;-61
2022/10/08 07:58:15;;;;;;;8.10;7.33;;;;;;;13.59;100.00;96789.03;5030267;28;105577;-61
2022/10/08 08:00:41;;;;;;;8.30;7.50;;;;;;;13.61;100.00;96788.75;5031231;28;101898;-61
2022/10/08 08:03:13;;;;;;;6.60;6.03;;;;;;;13.49;100.00;96797.00;5031107;28;105108;-61
2022/10/08 08:05:40;;;;;;;6.90;6.30;;;;;;;13.63;100.00;96803.47;5030355;28;104720;-61
2022/10/08 08:08:10;;;;;;;6.97;6.37;;;;;;;13.62;100.00;96798.41;5030809;28;101902;-61
2022/10/08 08:10:36;;;;;;;6.93;6.33;;;;;;;13.68;100.00;96803.50;5031092;28;106357;-61
2022/10/08 08:13:03;;;;;;;8.03;5.60;;;;;;;13.81;100.00;96796.91;5030231;28;105578;-61
2022/10/08 08:15:30;;;;;;;7.50;6.90;;;;;;;13.73;100.00;96800.84;5030662;27;101979;-61
2022/10/08 08:17:57;;;;;;;10.37;9.37;;;;;;;13.72;100.00;96798.44;5033833;28;105090;-61
2022/10/08 08:20:24;;;;;;;6.77;6.17;;;;;;;13.81;100.00;96796.91;5030628;28;102105;-61
2022/10/08 08:22:52;;;;;;;7.17;6.47;;;;;;;13.80;100.00;96798.75;5030511;28;104766;-61
2022/10/08 08:25:21;;;;;;;5.87;5.33;;;;;;;13.92;100.00;96801.22;5030112;28;104131;-61
2022/10/08 08:27:48;;;;;;;6.17;5.67;;;;;;;14.07;100.00;96801.28;5031853;28;102285;-61
2022/10/08 08:30:16;;;;;;;8.37;7.70;;;;;;;14.08;100.00;96801.03;5030719;28;105691;-61
2022/10/08 08:32:43;;;;;;;8.23;6.53;;;;;;;14.13;100.00;96802.91;5030198;28;105552;-61
2022/10/08 08:35:10;;;;;;;11.13;9.83;;;;;;;14.06;100.00;96800.47;5030520;28;102113;-61
2022/10/08 08:37:37;;;;;;;7.53;6.83;;;;;;;14.12;100.00;96794.06;5030432;28;105809;-61
2022/10/08 08:40:05;;;;;;;8.03;7.10;;;;;;;14.15;100.00;96798.91;5033240;28;104740;-61
2022/10/08 08:42:46;;;;;;;7.40;6.40;;;;;;;14.15;100.00;96800.75;5030529;28;105265;-61
2022/10/08 08:45:24;;;;;;;25.50;22.57;;;;;;;13.93;100.00;96802.81;5029812;28;105726;-61
2022/10/08 08:47:59;;;;;;;10.00;9.10;;;;;;;14.05;100.00;96801.53;5029192;28;101893;-61
2022/10/08 08:50:29;;;;;;;8.83;7.13;;;;;;;14.13;100.00;96801.06;5030138;28;105168;-61
2022/10/08 08:52:57;;;;;;;8.90;8.10;;;;;;;13.96;100.00;96799.63;5029511;28;105614;-61
2022/10/08 08:55:34;;;;;;;7.67;6.87;;;;;;;14.13;100.00;96800.25;5030029;28;103396;-61
2022/10/08 08:58:13;;;;;;;6.73;6.10;;;;;;;14.25;100.00;96793.63;5030414;28;105142;-61
2022/10/08 09:00:43;;;;;;;7.57;6.23;;;;;;;14.36;100.00;96789.09;5029622;28;103838;-61
2022/10/08 09:03:18;;;;;;;7.73;6.90;;;;;;;14.51;100.00;96797.16;5033584;28;102209;-61
2022/10/08 09:05:47;;;;;;;9.50;8.70;;;;;;;14.59;100.00;96788.59;5029362;28;105222;-61
2022/10/08 09:08:19;;;;;;;8.63;7.83;;;;;;;14.72;100.00;96798.81;5029884;28;101947;-61
2022/10/08 09:10:53;;;;;;;5.77;5.27;;;;;;;14.65;100.00;96795.56;5030129;28;105179;-61
2022/10/08 09:13:25;;;;;;;7.00;6.30;;;;;;;14.79;100.00;96800.16;5029149;28;105170;-61
2022/10/08 09:15:54;;;;;;;10.17;6.40;;;;;;;15.08;100.00;96798.56;5030091;28;101810;-60
2022/10/08 09:18:21;;;;;;;6.50;5.70;;;;;;;15.09;100.00;96794.00;5029934;28;105046;-60
2022/10/08 09:20:48;;;;;;;6.00;5.50;;;;;;;15.17;100.00;96782.75;5029143;28;105235;-60
2022/10/08 09:23:18;;;;;;;7.30;6.53;;;;;;;15.48;100.00;96787.03;5033135;28;101895;-60
2022/10/08 09:25:53;;;;;;;7.73;6.67;;;;;;;15.75;100.00;96787.50;5029964;28;103345;-60
2022/10/08 09:28:49;;;;;;;6.20;5.60;;;;;;;16.37;100.00;96782.38;5031290;28;101823;-60
2022/10/08 09:31:28;;;;;;;8.73;5.60;;;;;;;16.41;100.00;96784.25;5029742;28;105203;-60
2022/10/08 09:34:04;;;;;;;7.17;6.47;;;;;;;16.79;100.00;96785.38;5028431;28;106024;-60
2022/10/08 09:36:35;;;;;;;8.87;7.17;;;;;;;17.07;100.00;96782.72;5029788;28;101903;-60
2022/10/08 09:39:05;;;;;;;7.43;5.80;;;;;;;17.33;100.00;96784.13;5031298;28;102321;-60
2022/10/08 09:41:33;;;;;;;6.33;5.00;;;;;;;17.87;100.00;96779.28;5028967;28;105151;-60
2022/10/08 09:44:20;;;;;;;7.00;4.80;;;;;;;18.05;100.00;96775.03;5029519;28;101996;-60
2022/10/08 09:46:49;;;;;;;6.53;4.60;;;;;;;18.07;100.00;96768.28;5030597;28;105585;-60
2022/10/08 09:49:29;;;;;;;4.87;4.40;;;;;;;18.29;100.00;96765.03;5028655;28;101979;-60
2022/10/08 09:52:00;;;;;;;8.07;4.60;;;;;;;18.68;100.00;96769.09;5027469;28;102805;-60
2022/10/08 09:54:30;;;;;;;5.43;4.57;;;;;;;18.55;100.00;96766.31;5028385;28;102853;-60
2022/10/08 09:56:59;;;;;;;4.50;4.10;;;;;;;19.02;100.00;96758.06;5025936;28;101946;-60
2022/10/08 09:59:31;;;;;;;5.23;4.23;;;;;;;19.18;100.00;96765.59;5028979;28;105070;-60
2022/10/08 10:01:58;;;;;;;4.90;4.40;;;;;;;19.04;100.00;96763.94;5028718;28;105359;-60
2022/10/08 10:04:34;;;;;;;4.37;3.90;;;;;;;19.09;100.00;96758.47;5029071;28;101862;-60
2022/10/08 10:07:02;;;;;;;6.23;4.63;;;;;;;19.58;100.00;96764.13;5028928;28;105904;-60
2022/10/08 10:09:38;;;;;;;5.00;4.00;;;;;;;19.60;100.00;96761.91;5031764;28;105148;-60
2022/10/08 10:12:14;;;;;;;4.43;3.80;;;;;;;19.39;100.00;96763.38;5028976;28;104085;-60
2022/10/08 10:14:46;;;;;;;5.53;4.50;;;;;;;19.31;100.00;96755.97;5028449;28;105325;-60
2022/10/08 10:17:21;;;;;;;4.63;3.87;;;;;;;19.42;100.00;96746.59;5029144;28;101876;-60
2022/10/08 10:19:54;;;;;;;4.50;3.90;;;;;;;19.14;100.00;96745.69;5028742;28;105279;-60
2022/10/08 10:22:27;;;;;;;3.90;3.60;;;;;;;19.18;100.00;96741.31;5028159;28;105584;-60
2022/10/08 10:25:01;;;;;;;5.73;3.73;;;;;;;19.61;100.00;96736.53;5042704;27;102148;-60
2022/10/08 10:27:35;;;;;;;6.33;3.50;;;;;;;19.97;100.00;96738.25;5008863;28;105271;-60
2022/10/08 10:30:16;;;;;;;7.20;3.57;;;;;;;20.22;100.00;96737.72;5009928;28;103378;-60
2022/10/08 10:32:48;;;;;;;7.03;3.70;;;;;;;20.53;100.00;96735.16;5021335;28;101893;-60
2022/10/08 10:35:22;;;;;;;3.90;3.40;;;;;;;20.57;100.00;96730.75;5028161;28;105765;-60
2022/10/08 10:37:54;;;;;;;3.33;3.03;;;;;;;20.94;100.00;96720.44;5028611;28;101853;-60
2022/10/08 10:40:30;;;;;;;5.47;3.37;;;;;;;20.18;100.00;96727.84;5028845;28;105146;-60
2022/10/08 10:43:21;;;;;;;5.27;3.57;;;;;;;19.80;100.00;96715.66;5027915;28;105247;-60
2022/10/08 10:45:54;;;;;;;4.33;3.07;;;;;;;19.68;100.00;96718.84;5028785;28;102076;-60
2022/10/08 10:48:22;;;;;;;5.33;3.37;;;;;;;19.47;100.00;96717.66;5027981;28;105898;-60
2022/10/08 10:51:01;;;;;;;4.33;2.97;;;;;;;19.33;100.00;96711.44;5024982;28;105818;-60
2022/10/08 10:53:37;;;;;;;8.23;3.40;;;;;;;19.12;100.00;96715.53;5028159;28;102000;-60
2022/10/08 10:56:13;;;;;;;6.23;3.57;;;;;;;19.02;100.00;96710.31;5030674;28;105537;-60
2022/10/08 10:59:03;;;;;;;3.70;3.00;;;;;;;19.18;100.00;96710.88;5028277;28;102011;-60
2022/10/08 11:01:41;;;;;;;5.67;3.43;;;;;;;19.15;100.00;96709.56;5058735;27;105518;-60
2022/10/08 11:04:14;;;;;;;4.43;2.93;;;;;;;18.95;100.00;96698.31;5027437;28;105509;-60
2022/10/08 11:07:02;;;;;;;6.50;2.97;;;;;;;18.96;100.00;96695.34;5026985;28;101734;-60
2022/10/08 11:09:48;;;;;;;3.50;3.13;;;;;;;19.10;100.00;96700.75;5028168;28;103993;-60
2022/10/08 11:12:29;;;;;;;6.13;3.30;;;;;;;19.29;100.00;96688.06;5027544;28;105411;-60
2022/10/08 11:15:05;;;;;;;5.77;3.47;;;;;;;19.16;100.00;96697.69;5027823;28;103330;-60
2022/10/08 11:17:51;;;;;;;4.43;3.40;;;;;;;19.36;100.00;96699.25;5027668;28;104949;-60
2022/10/08 11:20:28;;;;;;;4.80;3.20;;;;;;;19.63;100.00;96696.56;5029504;28;106473;-60
2022/10/08 11:23:03;;;;;;;5.50;3.07;;;;;;;19.75;100.00;96691.47;5026647;28;105090;-60